sensor_id;sensor_type;location;lat;lon;timestamp;P1;durP1;ratioP1;P2;durP2;ratioP2
830;SDS011;397;50.564;7.272;2023-08-20T00:01:36;11.83;;;10.73;;
830;SDS011;397;50.564;7.272;2023-08-20T00:04:04;14.13;;;12.30;;
830;SDS011;397;50.564;7.272;2023-08-20T00:06:32;13.30;;;11.50;;
830;SDS011;397;50.564;7.272;2023-08-20T00:09:00;12.40;;;11.27;;
830;SDS011;397;50.564;7.272;2023-08-20T00:11:29;14.90;;;11.00;;
830;SDS011;397;50.564;7.272;2023-08-20T00:13:57;12.80;;;11.53;;
830;SDS011;397;50.564;7.272;2023-08-20T00:16:24;12.47;;;11.20;;
830;SDS011;397;50.564;7.272;2023-08-20T00:18:52;12.23;;;11.03;;
830;SDS011;397;50.564;7.272;2023-08-20T00:21:20;12.73;;;11.40;;
830;SDS011;397;50.564;7.272;2023-08-20T00:23:49;12.20;;;11.10;;
830;SDS011;397;50.564;7.272;2023-08-20T00:26:17;12.00;;;10.90;;
830;SDS011;397;50.564;7.272;2023-08-20T00:28:44;17.30;;;12.13;;
830;SDS011;397;50.564;7.272;2023-08-20T00:31:12;14.63;;;11.93;;
830;SDS011;397;50.564;7.272;2023-08-20T00:33:40;13.07;;;11.77;;
830;SDS011;397;50.564;7.272;2023-08-20T00:36:07;12.60;;;11.40;;
830;SDS011;397;50.564;7.272;2023-08-20T00:38:35;11.70;;;10.80;;
830;SDS011;397;50.564;7.272;2023-08-20T00:41:02;13.70;;;12.33;;
830;SDS011;397;50.564;7.272;2023-08-20T00:43:30;13.13;;;11.93;;
830;SDS011;397;50.564;7.272;2023-08-20T00:45:59;12.20;;;10.77;;
830;SDS011;397;50.564;7.272;2023-08-20T00:48:27;11.10;;;10.20;;
830;SDS011;397;50.564;7.272;2023-08-20T00:50:54;12.90;;;11.80;;
830;SDS011;397;50.564;7.272;2023-08-20T00:53:22;12.30;;;11.20;;
830;SDS011;397;50.564;7.272;2023-08-20T00:55:49;12.00;;;10.90;;
830;SDS011;397;50.564;7.272;2023-08-20T00:58:17;12.70;;;11.60;;
830;SDS011;397;50.564;7.272;2023-08-20T01:00:45;13.23;;;11.83;;
830;SDS011;397;50.564;7.272;2023-08-20T01:03:12;11.90;;;10.73;;
830;SDS011;397;50.564;7.272;2023-08-20T01:05:43;18.23;;;12.23;;
830;SDS011;397;50.564;7.272;2023-08-20T01:08:21;13.17;;;11.67;;
830;SDS011;397;50.564;7.272;2023-08-20T01:10:57;13.50;;;12.37;;
830;SDS011;397;50.564;7.272;2023-08-20T01:13:30;12.00;;;9.73;;
830;SDS011;397;50.564;7.272;2023-08-20T01:15:57;11.97;;;10.77;;
830;SDS011;397;50.564;7.272;2023-08-20T01:18:24;12.90;;;11.70;;
830;SDS011;397;50.564;7.272;2023-08-20T01:20:55;17.47;;;12.00;;
830;SDS011;397;50.564;7.272;2023-08-20T01:23:49;12.33;;;11.33;;
830;SDS011;397;50.564;7.272;2023-08-20T01:29:16;13.90;;;12.40;;
830;SDS011;397;50.564;7.272;2023-08-20T01:31:44;12.70;;;11.40;;
830;SDS011;397;50.564;7.272;2023-08-20T01:34:12;12.43;;;11.30;;
830;SDS011;397;50.564;7.272;2023-08-20T01:36:40;12.50;;;11.50;;
830;SDS011;397;50.564;7.272;2023-08-20T01:39:07;12.87;;;11.43;;
830;SDS011;397;50.564;7.272;2023-08-20T01:41:35;13.57;;;11.90;;
830;SDS011;397;50.564;7.272;2023-08-20T01:44:02;14.03;;;12.73;;
830;SDS011;397;50.564;7.272;2023-08-20T01:46:30;15.17;;;13.50;;
830;SDS011;397;50.564;7.272;2023-08-20T01:48:58;18.00;;;14.27;;
830;SDS011;397;50.564;7.272;2023-08-20T01:51:25;15.83;;;14.20;;
830;SDS011;397;50.564;7.272;2023-08-20T01:53:54;15.00;;;13.70;;
830;SDS011;397;50.564;7.272;2023-08-20T01:56:21;15.53;;;14.07;;
830;SDS011;397;50.564;7.272;2023-08-20T01:58:49;16.30;;;14.70;;
830;SDS011;397;50.564;7.272;2023-08-20T02:01:16;15.37;;;13.77;;
830;SDS011;397;50.564;7.272;2023-08-20T02:03:43;14.60;;;13.43;;
830;SDS011;397;50.564;7.272;2023-08-20T02:06:11;14.53;;;13.23;;
830;SDS011;397;50.564;7.272;2023-08-20T02:08:38;13.87;;;12.67;;
830;SDS011;397;50.564;7.272;2023-08-20T02:11:06;14.60;;;13.10;;
830;SDS011;397;50.564;7.272;2023-08-20T02:13:33;13.00;;;11.80;;
830;SDS011;397;50.564;7.272;2023-08-20T02:16:01;15.53;;;14.07;;
830;SDS011;397;50.564;7.272;2023-08-20T02:18:30;16.83;;;15.23;;
830;SDS011;397;50.564;7.272;2023-08-20T02:20:58;15.17;;;13.50;;
830;SDS011;397;50.564;7.272;2023-08-20T02:23:26;14.37;;;13.20;;
830;SDS011;397;50.564;7.272;2023-08-20T02:25:54;14.30;;;13.10;;
830;SDS011;397;50.564;7.272;2023-08-20T02:28:21;13.80;;;12.37;;
830;SDS011;397;50.564;7.272;2023-08-20T02:30:49;13.27;;;11.90;;
830;SDS011;397;50.564;7.272;2023-08-20T02:33:16;12.20;;;11.10;;
830;SDS011;397;50.564;7.272;2023-08-20T02:35:44;14.40;;;12.00;;
830;SDS011;397;50.564;7.272;2023-08-20T02:38:11;13.53;;;11.63;;
830;SDS011;397;50.564;7.272;2023-08-20T02:40:40;12.67;;;11.47;;
830;SDS011;397;50.564;7.272;2023-08-20T02:43:08;13.10;;;12.00;;
830;SDS011;397;50.564;7.272;2023-08-20T02:45:39;11.97;;;10.87;;
830;SDS011;397;50.564;7.272;2023-08-20T02:48:08;14.00;;;11.97;;
830;SDS011;397;50.564;7.272;2023-08-20T02:50:36;12.00;;;10.90;;
830;SDS011;397;50.564;7.272;2023-08-20T02:53:03;11.97;;;10.83;;
830;SDS011;397;50.564;7.272;2023-08-20T02:55:31;13.63;;;11.33;;
830;SDS011;397;50.564;7.272;2023-08-20T02:58:00;12.27;;;11.27;;
830;SDS011;397;50.564;7.272;2023-08-20T03:00:30;13.93;;;11.80;;
830;SDS011;397;50.564;7.272;2023-08-20T03:02:57;13.37;;;12.00;;
830;SDS011;397;50.564;7.272;2023-08-20T03:05:25;13.30;;;12.13;;
830;SDS011;397;50.564;7.272;2023-08-20T03:07:52;12.93;;;11.67;;
830;SDS011;397;50.564;7.272;2023-08-20T03:10:20;12.80;;;11.70;;
830;SDS011;397;50.564;7.272;2023-08-20T03:12:47;17.30;;;14.27;;
830;SDS011;397;50.564;7.272;2023-08-20T03:15:15;20.57;;;15.13;;
830;SDS011;397;50.564;7.272;2023-08-20T03:17:42;15.43;;;14.00;;
830;SDS011;397;50.564;7.272;2023-08-20T03:20:10;17.30;;;13.37;;
830;SDS011;397;50.564;7.272;2023-08-20T03:22:38;17.77;;;15.93;;
830;SDS011;397;50.564;7.272;2023-08-20T03:25:06;18.13;;;16.20;;
830;SDS011;397;50.564;7.272;2023-08-20T03:27:34;20.73;;;17.00;;
830;SDS011;397;50.564;7.272;2023-08-20T03:30:01;19.20;;;16.50;;
830;SDS011;397;50.564;7.272;2023-08-20T03:32:30;19.73;;;17.60;;
830;SDS011;397;50.564;7.272;2023-08-20T03:34:58;26.20;;;18.90;;
830;SDS011;397;50.564;7.272;2023-08-20T03:37:25;19.90;;;16.83;;
830;SDS011;397;50.564;7.272;2023-08-20T03:39:53;26.30;;;20.23;;
830;SDS011;397;50.564;7.272;2023-08-20T03:42:21;23.30;;;17.03;;
830;SDS011;397;50.564;7.272;2023-08-20T03:44:48;22.13;;;19.03;;
830;SDS011;397;50.564;7.272;2023-08-20T03:47:16;19.47;;;17.43;;
830;SDS011;397;50.564;7.272;2023-08-20T03:49:45;23.03;;;17.93;;
830;SDS011;397;50.564;7.272;2023-08-20T03:52:14;20.83;;;18.53;;
830;SDS011;397;50.564;7.272;2023-08-20T03:54:42;20.60;;;18.60;;
830;SDS011;397;50.564;7.272;2023-08-20T03:57:09;24.60;;;20.47;;
830;SDS011;397;50.564;7.272;2023-08-20T03:59:37;24.83;;;21.33;;
830;SDS011;397;50.564;7.272;2023-08-20T04:02:04;22.50;;;20.03;;
830;SDS011;397;50.564;7.272;2023-08-20T04:04:32;22.40;;;20.20;;
830;SDS011;397;50.564;7.272;2023-08-20T04:06:59;23.23;;;20.83;;
830;SDS011;397;50.564;7.272;2023-08-20T04:09:27;27.17;;;22.10;;
830;SDS011;397;50.564;7.272;2023-08-20T04:11:54;28.03;;;23.43;;
830;SDS011;397;50.564;7.272;2023-08-20T04:14:22;22.17;;;19.87;;
830;SDS011;397;50.564;7.272;2023-08-20T04:16:49;23.60;;;21.40;;
830;SDS011;397;50.564;7.272;2023-08-20T04:19:17;22.90;;;20.60;;
830;SDS011;397;50.564;7.272;2023-08-20T04:21:44;23.30;;;21.13;;
830;SDS011;397;50.564;7.272;2023-08-20T04:24:12;22.97;;;20.60;;
830;SDS011;397;50.564;7.272;2023-08-20T04:26:40;21.83;;;19.90;;
830;SDS011;397;50.564;7.272;2023-08-20T04:29:08;23.43;;;21.30;;
830;SDS011;397;50.564;7.272;2023-08-20T04:31:35;24.33;;;22.00;;
830;SDS011;397;50.564;7.272;2023-08-20T04:34:03;22.40;;;20.50;;
830;SDS011;397;50.564;7.272;2023-08-20T04:36:30;24.40;;;22.03;;
830;SDS011;397;50.564;7.272;2023-08-20T04:38:58;25.67;;;23.27;;
830;SDS011;397;50.564;7.272;2023-08-20T04:41:25;22.60;;;20.70;;
830;SDS011;397;50.564;7.272;2023-08-20T04:43:53;22.40;;;20.30;;
830;SDS011;397;50.564;7.272;2023-08-20T04:46:20;22.93;;;20.73;;
830;SDS011;397;50.564;7.272;2023-08-20T04:48:48;24.57;;;22.30;;
830;SDS011;397;50.564;7.272;2023-08-20T04:51:15;26.30;;;23.60;;
830;SDS011;397;50.564;7.272;2023-08-20T04:53:43;24.83;;;22.17;;
830;SDS011;397;50.564;7.272;2023-08-20T04:56:12;23.53;;;21.43;;
830;SDS011;397;50.564;7.272;2023-08-20T04:58:39;23.60;;;21.10;;
830;SDS011;397;50.564;7.272;2023-08-20T05:01:07;26.27;;;22.33;;
830;SDS011;397;50.564;7.272;2023-08-20T05:03:35;20.53;;;18.73;;
830;SDS011;397;50.564;7.272;2023-08-20T05:06:02;23.20;;;20.87;;
830;SDS011;397;50.564;7.272;2023-08-20T05:08:30;20.73;;;18.63;;
830;SDS011;397;50.564;7.272;2023-08-20T05:10:57;22.13;;;19.93;;
830;SDS011;397;50.564;7.272;2023-08-20T05:13:26;22.33;;;20.07;;
830;SDS011;397;50.564;7.272;2023-08-20T05:15:54;22.00;;;20.00;;
830;SDS011;397;50.564;7.272;2023-08-20T05:18:21;24.40;;;22.23;;
830;SDS011;397;50.564;7.272;2023-08-20T05:20:49;22.87;;;20.67;;
830;SDS011;397;50.564;7.272;2023-08-20T05:23:16;22.63;;;20.33;;
830;SDS011;397;50.564;7.272;2023-08-20T05:25:44;19.50;;;17.80;;
830;SDS011;397;50.564;7.272;2023-08-20T05:28:11;25.33;;;23.03;;
830;SDS011;397;50.564;7.272;2023-08-20T05:30:39;22.50;;;20.57;;
830;SDS011;397;50.564;7.272;2023-08-20T05:33:06;20.70;;;18.63;;
830;SDS011;397;50.564;7.272;2023-08-20T05:35:34;21.30;;;19.40;;
830;SDS011;397;50.564;7.272;2023-08-20T05:38:01;21.10;;;19.10;;
830;SDS011;397;50.564;7.272;2023-08-20T05:40:29;23.00;;;20.70;;
830;SDS011;397;50.564;7.272;2023-08-20T05:42:56;22.07;;;19.97;;
830;SDS011;397;50.564;7.272;2023-08-20T05:45:24;21.90;;;19.90;;
830;SDS011;397;50.564;7.272;2023-08-20T05:47:51;20.80;;;18.90;;
830;SDS011;397;50.564;7.272;2023-08-20T05:50:19;21.50;;;19.70;;
830;SDS011;397;50.564;7.272;2023-08-20T05:52:47;23.70;;;21.50;;
830;SDS011;397;50.564;7.272;2023-08-20T05:55:15;22.10;;;19.90;;
830;SDS011;397;50.564;7.272;2023-08-20T05:57:42;22.70;;;20.47;;
830;SDS011;397;50.564;7.272;2023-08-20T06:00:10;20.70;;;19.00;;
830;SDS011;397;50.564;7.272;2023-08-20T06:02:38;19.80;;;18.10;;
830;SDS011;397;50.564;7.272;2023-08-20T06:05:05;20.63;;;18.77;;
830;SDS011;397;50.564;7.272;2023-08-20T06:07:33;21.33;;;19.33;;
830;SDS011;397;50.564;7.272;2023-08-20T06:10:01;18.80;;;17.20;;
830;SDS011;397;50.564;7.272;2023-08-20T06:12:28;19.53;;;17.73;;
830;SDS011;397;50.564;7.272;2023-08-20T06:14:56;18.73;;;16.57;;
830;SDS011;397;50.564;7.272;2023-08-20T06:17:23;18.73;;;16.97;;
830;SDS011;397;50.564;7.272;2023-08-20T06:19:51;21.07;;;19.27;;
830;SDS011;397;50.564;7.272;2023-08-20T06:22:18;19.33;;;17.30;;
830;SDS011;397;50.564;7.272;2023-08-20T06:24:46;19.37;;;17.60;;
830;SDS011;397;50.564;7.272;2023-08-20T06:27:13;19.23;;;17.33;;
830;SDS011;397;50.564;7.272;2023-08-20T06:29:41;16.00;;;14.50;;
830;SDS011;397;50.564;7.272;2023-08-20T06:32:08;18.17;;;16.47;;
830;SDS011;397;50.564;7.272;2023-08-20T06:34:36;15.23;;;13.93;;
830;SDS011;397;50.564;7.272;2023-08-20T06:37:03;16.73;;;15.33;;
830;SDS011;397;50.564;7.272;2023-08-20T06:39:31;15.20;;;13.70;;
830;SDS011;397;50.564;7.272;2023-08-20T06:41:58;16.40;;;14.90;;
830;SDS011;397;50.564;7.272;2023-08-20T06:44:26;16.50;;;14.97;;
830;SDS011;397;50.564;7.272;2023-08-20T06:46:53;15.17;;;13.80;;
830;SDS011;397;50.564;7.272;2023-08-20T06:49:21;16.27;;;14.33;;
830;SDS011;397;50.564;7.272;2023-08-20T06:51:48;16.27;;;14.77;;
830;SDS011;397;50.564;7.272;2023-08-20T06:54:16;16.40;;;14.90;;
830;SDS011;397;50.564;7.272;2023-08-20T06:56:43;12.77;;;11.60;;
830;SDS011;397;50.564;7.272;2023-08-20T06:59:11;14.63;;;13.27;;
830;SDS011;397;50.564;7.272;2023-08-20T07:01:38;13.00;;;11.70;;
830;SDS011;397;50.564;7.272;2023-08-20T07:04:06;12.60;;;11.30;;
830;SDS011;397;50.564;7.272;2023-08-20T07:06:33;14.70;;;13.17;;
830;SDS011;397;50.564;7.272;2023-08-20T07:09:01;12.10;;;11.00;;
830;SDS011;397;50.564;7.272;2023-08-20T07:11:29;13.13;;;11.73;;
830;SDS011;397;50.564;7.272;2023-08-20T07:13:57;13.87;;;12.47;;
830;SDS011;397;50.564;7.272;2023-08-20T07:16:24;13.73;;;11.50;;
830;SDS011;397;50.564;7.272;2023-08-20T07:18:52;14.53;;;12.73;;
830;SDS011;397;50.564;7.272;2023-08-20T07:21:19;12.63;;;11.43;;
830;SDS011;397;50.564;7.272;2023-08-20T07:23:47;14.50;;;13.30;;
830;SDS011;397;50.564;7.272;2023-08-20T07:26:14;19.10;;;15.40;;
830;SDS011;397;50.564;7.272;2023-08-20T07:28:42;16.40;;;15.00;;
830;SDS011;397;50.564;7.272;2023-08-20T07:31:13;16.90;;;15.20;;
830;SDS011;397;50.564;7.272;2023-08-20T07:33:41;16.03;;;14.47;;
830;SDS011;397;50.564;7.272;2023-08-20T07:36:14;14.83;;;13.40;;
830;SDS011;397;50.564;7.272;2023-08-20T07:38:42;16.07;;;14.60;;
830;SDS011;397;50.564;7.272;2023-08-20T07:41:10;18.13;;;16.37;;
830;SDS011;397;50.564;7.272;2023-08-20T07:43:38;17.87;;;14.03;;
830;SDS011;397;50.564;7.272;2023-08-20T07:46:07;16.97;;;15.37;;
830;SDS011;397;50.564;7.272;2023-08-20T07:48:35;14.80;;;13.40;;
830;SDS011;397;50.564;7.272;2023-08-20T07:51:03;14.77;;;13.37;;
830;SDS011;397;50.564;7.272;2023-08-20T07:53:31;15.55;;;14.15;;
830;SDS011;397;50.564;7.272;2023-08-20T07:55:59;15.53;;;14.07;;
830;SDS011;397;50.564;7.272;2023-08-20T07:58:27;15.80;;;14.30;;
830;SDS011;397;50.564;7.272;2023-08-20T08:00:55;15.13;;;13.47;;
830;SDS011;397;50.564;7.272;2023-08-20T08:03:24;14.40;;;13.00;;
830;SDS011;397;50.564;7.272;2023-08-20T08:05:55;16.63;;;13.43;;
830;SDS011;397;50.564;7.272;2023-08-20T08:08:22;15.80;;;14.40;;
830;SDS011;397;50.564;7.272;2023-08-20T08:10:50;16.00;;;14.30;;
830;SDS011;397;50.564;7.272;2023-08-20T08:13:19;14.50;;;12.90;;
830;SDS011;397;50.564;7.272;2023-08-20T08:15:47;17.80;;;16.20;;
830;SDS011;397;50.564;7.272;2023-08-20T08:18:15;15.53;;;14.13;;
830;SDS011;397;50.564;7.272;2023-08-20T08:20:43;14.67;;;13.27;;
830;SDS011;397;50.564;7.272;2023-08-20T08:23:11;17.43;;;15.70;;
830;SDS011;397;50.564;7.272;2023-08-20T08:25:38;13.90;;;12.70;;
830;SDS011;397;50.564;7.272;2023-08-20T08:28:07;16.17;;;14.67;;
830;SDS011;397;50.564;7.272;2023-08-20T08:30:34;14.70;;;13.23;;
830;SDS011;397;50.564;7.272;2023-08-20T08:33:02;14.80;;;13.40;;
830;SDS011;397;50.564;7.272;2023-08-20T08:35:29;13.80;;;12.30;;
830;SDS011;397;50.564;7.272;2023-08-20T08:37:57;13.53;;;12.23;;
830;SDS011;397;50.564;7.272;2023-08-20T08:40:28;12.07;;;11.00;;
830;SDS011;397;50.564;7.272;2023-08-20T08:42:56;12.40;;;11.30;;
830;SDS011;397;50.564;7.272;2023-08-20T08:45:24;13.67;;;12.20;;
830;SDS011;397;50.564;7.272;2023-08-20T08:47:54;13.43;;;11.47;;
830;SDS011;397;50.564;7.272;2023-08-20T08:50:22;15.53;;;11.83;;
830;SDS011;397;50.564;7.272;2023-08-20T08:52:50;12.63;;;11.50;;
830;SDS011;397;50.564;7.272;2023-08-20T08:55:20;13.23;;;11.90;;
830;SDS011;397;50.564;7.272;2023-08-20T08:57:48;12.13;;;11.03;;
830;SDS011;397;50.564;7.272;2023-08-20T09:00:15;12.60;;;11.50;;
830;SDS011;397;50.564;7.272;2023-08-20T09:02:43;12.33;;;11.23;;
830;SDS011;397;50.564;7.272;2023-08-20T09:05:12;12.60;;;11.40;;
830;SDS011;397;50.564;7.272;2023-08-20T09:07:43;12.20;;;11.03;;
830;SDS011;397;50.564;7.272;2023-08-20T09:10:11;11.37;;;10.27;;
830;SDS011;397;50.564;7.272;2023-08-20T09:12:38;11.13;;;10.03;;
830;SDS011;397;50.564;7.272;2023-08-20T09:15:09;13.00;;;11.80;;
830;SDS011;397;50.564;7.272;2023-08-20T09:17:38;12.33;;;11.23;;
830;SDS011;397;50.564;7.272;2023-08-20T09:20:07;12.00;;;10.87;;
830;SDS011;397;50.564;7.272;2023-08-20T09:22:35;13.23;;;11.17;;
830;SDS011;397;50.564;7.272;2023-08-20T09:25:03;13.10;;;11.70;;
830;SDS011;397;50.564;7.272;2023-08-20T09:27:32;13.33;;;12.13;;
830;SDS011;397;50.564;7.272;2023-08-20T09:30:07;11.17;;;10.13;;
830;SDS011;397;50.564;7.272;2023-08-20T09:32:36;12.03;;;10.40;;
830;SDS011;397;50.564;7.272;2023-08-20T09:35:03;11.70;;;10.60;;
830;SDS011;397;50.564;7.272;2023-08-20T09:37:31;12.00;;;10.80;;
830;SDS011;397;50.564;7.272;2023-08-20T09:40:00;12.17;;;10.90;;
830;SDS011;397;50.564;7.272;2023-08-20T09:42:28;11.10;;;10.00;;
830;SDS011;397;50.564;7.272;2023-08-20T09:44:58;10.97;;;9.87;;
830;SDS011;397;50.564;7.272;2023-08-20T09:47:29;11.83;;;10.60;;
830;SDS011;397;50.564;7.272;2023-08-20T09:49:59;14.80;;;10.70;;
830;SDS011;397;50.564;7.272;2023-08-20T09:52:31;10.57;;;9.67;;
830;SDS011;397;50.564;7.272;2023-08-20T09:55:00;10.93;;;10.03;;
830;SDS011;397;50.564;7.272;2023-08-20T09:57:35;11.17;;;10.07;;
830;SDS011;397;50.564;7.272;2023-08-20T10:00:10;11.63;;;10.67;;
830;SDS011;397;50.564;7.272;2023-08-20T10:02:39;11.97;;;10.77;;
830;SDS011;397;50.564;7.272;2023-08-20T10:05:10;12.13;;;11.03;;
830;SDS011;397;50.564;7.272;2023-08-20T10:07:40;12.27;;;11.17;;
830;SDS011;397;50.564;7.272;2023-08-20T10:10:09;10.80;;;9.90;;
830;SDS011;397;50.564;7.272;2023-08-20T10:12:40;11.40;;;10.40;;
830;SDS011;397;50.564;7.272;2023-08-20T10:15:10;10.97;;;10.07;;
830;SDS011;397;50.564;7.272;2023-08-20T10:17:39;10.93;;;9.67;;
830;SDS011;397;50.564;7.272;2023-08-20T10:20:09;11.60;;;10.60;;
830;SDS011;397;50.564;7.272;2023-08-20T10:22:42;10.67;;;9.67;;
830;SDS011;397;50.564;7.272;2023-08-20T10:25:11;11.33;;;10.27;;
830;SDS011;397;50.564;7.272;2023-08-20T10:27:41;11.03;;;10.07;;
830;SDS011;397;50.564;7.272;2023-08-20T10:30:16;9.53;;;8.73;;
830;SDS011;397;50.564;7.272;2023-08-20T10:32:51;11.53;;;9.40;;
830;SDS011;397;50.564;7.272;2023-08-20T10:35:22;9.80;;;8.90;;
830;SDS011;397;50.564;7.272;2023-08-20T10:38:08;10.23;;;9.03;;
830;SDS011;397;50.564;7.272;2023-08-20T10:40:48;8.97;;;8.17;;
830;SDS011;397;50.564;7.272;2023-08-20T10:43:29;10.20;;;9.30;;
830;SDS011;397;50.564;7.272;2023-08-20T10:46:16;10.17;;;9.27;;
830;SDS011;397;50.564;7.272;2023-08-20T10:48:48;13.60;;;10.50;;
830;SDS011;397;50.564;7.272;2023-08-20T10:51:18;9.90;;;8.53;;
830;SDS011;397;50.564;7.272;2023-08-20T10:54:12;10.00;;;9.20;;
830;SDS011;397;50.564;7.272;2023-08-20T10:56:45;11.53;;;10.37;;
830;SDS011;397;50.564;7.272;2023-08-20T10:59:17;9.57;;;8.73;;
830;SDS011;397;50.564;7.272;2023-08-20T11:01:57;9.90;;;9.03;;
830;SDS011;397;50.564;7.272;2023-08-20T11:04:30;9.27;;;8.47;;
830;SDS011;397;50.564;7.272;2023-08-20T11:06:58;10.20;;;9.20;;
830;SDS011;397;50.564;7.272;2023-08-20T11:09:28;9.23;;;8.37;;
830;SDS011;397;50.564;7.272;2023-08-20T11:11:57;10.33;;;9.33;;
830;SDS011;397;50.564;7.272;2023-08-20T11:14:25;7.87;;;7.07;;
830;SDS011;397;50.564;7.272;2023-08-20T11:16:53;10.80;;;9.00;;
830;SDS011;397;50.564;7.272;2023-08-20T11:19:21;8.30;;;7.60;;
830;SDS011;397;50.564;7.272;2023-08-20T11:21:50;8.40;;;7.60;;
830;SDS011;397;50.564;7.272;2023-08-20T11:24:18;8.13;;;7.43;;
830;SDS011;397;50.564;7.272;2023-08-20T11:26:47;8.57;;;6.87;;
830;SDS011;397;50.564;7.272;2023-08-20T11:29:14;8.67;;;7.20;;
830;SDS011;397;50.564;7.272;2023-08-20T11:31:47;7.97;;;7.27;;
830;SDS011;397;50.564;7.272;2023-08-20T11:34:15;7.97;;;7.27;;
830;SDS011;397;50.564;7.272;2023-08-20T11:36:44;7.47;;;6.67;;
830;SDS011;397;50.564;7.272;2023-08-20T11:39:12;7.13;;;6.43;;
830;SDS011;397;50.564;7.272;2023-08-20T11:41:40;7.17;;;6.47;;
830;SDS011;397;50.564;7.272;2023-08-20T11:44:08;7.60;;;6.90;;
830;SDS011;397;50.564;7.272;2023-08-20T11:46:42;9.13;;;6.70;;
830;SDS011;397;50.564;7.272;2023-08-20T11:49:10;7.53;;;6.73;;
830;SDS011;397;50.564;7.272;2023-08-20T11:51:42;7.93;;;7.00;;
830;SDS011;397;50.564;7.272;2023-08-20T11:54:17;6.87;;;6.27;;
830;SDS011;397;50.564;7.272;2023-08-20T11:56:50;9.97;;;8.20;;
830;SDS011;397;50.564;7.272;2023-08-20T11:59:17;10.70;;;6.90;;
830;SDS011;397;50.564;7.272;2023-08-20T12:01:52;7.23;;;6.63;;
830;SDS011;397;50.564;7.272;2023-08-20T12:04:23;7.90;;;6.77;;
830;SDS011;397;50.564;7.272;2023-08-20T12:09:37;8.17;;;7.10;;
830;SDS011;397;50.564;7.272;2023-08-20T12:12:05;7.47;;;6.80;;
830;SDS011;397;50.564;7.272;2023-08-20T12:14:34;7.57;;;6.97;;
830;SDS011;397;50.564;7.272;2023-08-20T12:17:02;7.07;;;6.30;;
830;SDS011;397;50.564;7.272;2023-08-20T12:19:30;7.53;;;6.80;;
830;SDS011;397;50.564;7.272;2023-08-20T12:21:57;7.20;;;6.60;;
830;SDS011;397;50.564;7.272;2023-08-20T12:24:25;7.60;;;6.90;;
830;SDS011;397;50.564;7.272;2023-08-20T12:26:52;7.37;;;6.63;;
830;SDS011;397;50.564;7.272;2023-08-20T12:29:20;6.90;;;6.20;;
830;SDS011;397;50.564;7.272;2023-08-20T12:31:48;8.40;;;6.83;;
830;SDS011;397;50.564;7.272;2023-08-20T12:34:15;8.47;;;6.30;;
830;SDS011;397;50.564;7.272;2023-08-20T12:36:43;5.67;;;5.13;;
830;SDS011;397;50.564;7.272;2023-08-20T12:39:10;6.57;;;5.97;;
830;SDS011;397;50.564;7.272;2023-08-20T12:41:39;6.80;;;5.73;;
830;SDS011;397;50.564;7.272;2023-08-20T12:44:07;7.70;;;5.87;;
830;SDS011;397;50.564;7.272;2023-08-20T12:46:34;6.57;;;5.97;;
830;SDS011;397;50.564;7.272;2023-08-20T12:49:02;6.20;;;5.07;;
830;SDS011;397;50.564;7.272;2023-08-20T12:51:29;8.03;;;5.63;;
830;SDS011;397;50.564;7.272;2023-08-20T12:53:57;5.83;;;5.33;;
830;SDS011;397;50.564;7.272;2023-08-20T12:56:25;6.87;;;6.17;;
830;SDS011;397;50.564;7.272;2023-08-20T12:58:53;8.90;;;5.80;;
830;SDS011;397;50.564;7.272;2023-08-20T13:01:20;6.63;;;6.03;;
830;SDS011;397;50.564;7.272;2023-08-20T13:03:48;7.20;;;6.60;;
830;SDS011;397;50.564;7.272;2023-08-20T13:06:15;6.70;;;6.10;;
830;SDS011;397;50.564;7.272;2023-08-20T13:08:43;7.50;;;6.53;;
830;SDS011;397;50.564;7.272;2023-08-20T13:11:12;6.20;;;5.70;;
830;SDS011;397;50.564;7.272;2023-08-20T13:13:42;6.43;;;5.83;;
830;SDS011;397;50.564;7.272;2023-08-20T13:16:10;6.93;;;5.80;;
830;SDS011;397;50.564;7.272;2023-08-20T13:18:37;12.53;;;7.03;;
830;SDS011;397;50.564;7.272;2023-08-20T13:21:05;6.17;;;5.67;;
830;SDS011;397;50.564;7.272;2023-08-20T13:23:34;8.03;;;5.93;;
830;SDS011;397;50.564;7.272;2023-08-20T13:26:01;7.47;;;6.10;;
830;SDS011;397;50.564;7.272;2023-08-20T13:28:29;6.30;;;5.73;;
830;SDS011;397;50.564;7.272;2023-08-20T13:30:56;6.50;;;5.80;;
830;SDS011;397;50.564;7.272;2023-08-20T13:33:24;9.00;;;6.10;;
830;SDS011;397;50.564;7.272;2023-08-20T13:35:51;5.73;;;5.23;;
830;SDS011;397;50.564;7.272;2023-08-20T13:38:19;7.27;;;6.63;;
830;SDS011;397;50.564;7.272;2023-08-20T13:40:48;7.07;;;6.47;;
830;SDS011;397;50.564;7.272;2023-08-20T13:43:15;7.17;;;6.57;;
830;SDS011;397;50.564;7.272;2023-08-20T13:45:43;7.13;;;6.47;;
830;SDS011;397;50.564;7.272;2023-08-20T13:48:10;8.93;;;6.87;;
830;SDS011;397;50.564;7.272;2023-08-20T13:50:38;6.83;;;6.13;;
830;SDS011;397;50.564;7.272;2023-08-20T13:53:05;7.27;;;6.33;;
830;SDS011;397;50.564;7.272;2023-08-20T13:55:33;6.83;;;6.23;;
830;SDS011;397;50.564;7.272;2023-08-20T13:58:01;6.00;;;5.50;;
830;SDS011;397;50.564;7.272;2023-08-20T14:00:28;8.50;;;5.50;;
830;SDS011;397;50.564;7.272;2023-08-20T14:02:57;6.67;;;5.57;;
830;SDS011;397;50.564;7.272;2023-08-20T14:05:24;6.23;;;5.70;;
830;SDS011;397;50.564;7.272;2023-08-20T14:07:52;7.00;;;6.30;;
830;SDS011;397;50.564;7.272;2023-08-20T14:10:19;7.70;;;6.97;;
830;SDS011;397;50.564;7.272;2023-08-20T14:12:47;6.43;;;5.80;;
830;SDS011;397;50.564;7.272;2023-08-20T14:15:15;9.37;;;6.13;;
830;SDS011;397;50.564;7.272;2023-08-20T14:17:42;6.70;;;5.67;;
830;SDS011;397;50.564;7.272;2023-08-20T14:20:10;6.40;;;5.80;;
830;SDS011;397;50.564;7.272;2023-08-20T14:22:39;7.10;;;6.40;;
830;SDS011;397;50.564;7.272;2023-08-20T14:25:07;6.33;;;5.73;;
830;SDS011;397;50.564;7.272;2023-08-20T14:27:35;7.90;;;7.00;;
830;SDS011;397;50.564;7.272;2023-08-20T14:30:03;8.87;;;7.97;;
830;SDS011;397;50.564;7.272;2023-08-20T14:32:31;7.70;;;6.90;;
830;SDS011;397;50.564;7.272;2023-08-20T14:34:58;7.90;;;7.00;;
830;SDS011;397;50.564;7.272;2023-08-20T14:37:26;7.67;;;6.93;;
830;SDS011;397;50.564;7.272;2023-08-20T14:39:53;7.70;;;7.00;;
830;SDS011;397;50.564;7.272;2023-08-20T14:42:21;7.00;;;6.30;;
830;SDS011;397;50.564;7.272;2023-08-20T14:44:49;9.53;;;7.17;;
830;SDS011;397;50.564;7.272;2023-08-20T14:47:16;9.20;;;6.60;;
830;SDS011;397;50.564;7.272;2023-08-20T14:49:43;7.20;;;6.50;;
830;SDS011;397;50.564;7.272;2023-08-20T14:52:11;7.60;;;6.30;;
830;SDS011;397;50.564;7.272;2023-08-20T14:54:38;8.93;;;6.00;;
830;SDS011;397;50.564;7.272;2023-08-20T14:57:07;6.83;;;6.23;;
830;SDS011;397;50.564;7.272;2023-08-20T14:59:35;7.73;;;7.03;;
830;SDS011;397;50.564;7.272;2023-08-20T15:02:02;7.53;;;6.93;;
830;SDS011;397;50.564;7.272;2023-08-20T15:04:30;7.60;;;7.00;;
830;SDS011;397;50.564;7.272;2023-08-20T15:06:57;7.60;;;6.90;;
830;SDS011;397;50.564;7.272;2023-08-20T15:09:25;7.50;;;6.90;;
830;SDS011;397;50.564;7.272;2023-08-20T15:11:52;8.40;;;7.57;;
830;SDS011;397;50.564;7.272;2023-08-20T15:14:21;7.83;;;7.03;;
830;SDS011;397;50.564;7.272;2023-08-20T15:16:49;8.40;;;7.70;;
830;SDS011;397;50.564;7.272;2023-08-20T15:19:16;11.57;;;7.90;;
830;SDS011;397;50.564;7.272;2023-08-20T15:21:44;8.17;;;7.47;;
830;SDS011;397;50.564;7.272;2023-08-20T15:24:11;8.67;;;7.97;;
830;SDS011;397;50.564;7.272;2023-08-20T15:26:39;12.10;;;8.40;;
830;SDS011;397;50.564;7.272;2023-08-20T15:29:07;9.30;;;8.50;;
830;SDS011;397;50.564;7.272;2023-08-20T15:31:34;9.47;;;8.63;;
830;SDS011;397;50.564;7.272;2023-08-20T15:34:01;9.00;;;8.20;;
830;SDS011;397;50.564;7.272;2023-08-20T15:36:29;9.13;;;8.27;;
830;SDS011;397;50.564;7.272;2023-08-20T15:38:57;8.90;;;8.10;;